Weather observations for the past three days for
Stephens County Airport
Metric (Imperial)
Date Time (cdt) Wind (kph) Vis. (km) Weather Sky Cond. Temperature (ºC) Relative Humidity Wind Chill (°C) Heat Index (°C) Pressure Precipitation (cm)
Air Dwpt 6 hour altimeter (cm) sea level (mb) 1 hr 3 hr 6 hr
Max. Min.
02 14:15 Calm 8.05 Partly Cloudy SCT070 23.2 5.9 33% 76.63 0.0
02 13:55 Calm 8.05 Fair CLR 23.5 6.5 34% 76.66 0.0
02 13:35 Calm 11.27 Partly Cloudy SCT060 23.3 7.1 35% 76.66 0.0
02 13:15 Calm 8.05 Partly Cloudy SCT060 22.1 6.6 37% 76.68 0.0
02 12:55 Calm 8.05 Fair CLR 22.3 6.7 22.5 8.5 37% 76.71 0.0
02 12:35 Calm 8.05 Fair CLR 21.7 6.6 38% 76.73 0.0
02 12:15 Calm 8.05 Fair CLR 22.1 6.6 37% 76.73 0.0
02 11:55 W 7 8.05 Fair CLR 21.3 6.8 39% 76.76 0.0
02 11:35 Calm 8.05 Fair CLR 21.3 6.3 38% 76.76 0.0
02 11:15 Calm 8.05 Fair CLR 20.8 7.9 44% 76.76 0.0
02 10:55 Calm 8.05 Fair CLR 20.1 8.7 48% 76.76 0.0
02 10:35 Calm 8.05 Fair CLR 19.6 9.6 53% 76.76 0.0
02 10:15 Calm 6.44 Fair CLR 18.5 9.7 57% 76.76 0.0
02 09:55 Calm 11.27 Fair CLR 17.2 10.7 66% 76.76 0.0
02 09:35 Calm 8.05 Fair CLR 16.2 10.3 68% 76.76 0.0
02 09:15 Calm 6.44 Fair CLR 14.9 10.9 77% 76.73 0.0
02 08:55 Calm 8.05 Fair CLR 13.4 11.1 86% 76.73 0.0
02 08:35 Calm 6.44 Fair CLR 12.2 10.9 92% 76.71 0.0
02 08:15 Calm 8.05 Fair CLR 11.1 10.8 98% 76.71 0.0
02 07:55 Calm 8.05 Fair CLR 10.3 10.3 100% 76.68 0.0
02 07:35 SW 6 8.05 Fair CLR 9.5 9.5 100% 76.66 0.0
02 07:15 Calm 8.05 Fair CLR 8.7 8.7 100% 76.63 0.0
02 06:55 Calm 6.44 Fair CLR 8.6 8.6 12 8.6 100% 76.61 0.0
02 06:35 Calm 11.27 Fair CLR 9 9 100% 76.61 0.0
02 06:15 Calm 11.27 Fair CLR 9 9 100% 76.61 0.0
02 05:55 Calm 8.05 Fair CLR 9 9 100% 76.58 0.0
02 05:35 Calm 8.05 Fair CLR 9 9 100% 76.56 0.0
02 05:15 Calm 8.05 Fair CLR 9.5 9.5 100% 76.56 0.0
02 04:55 Calm 8.05 Fair CLR 9.2 9.2 100% 76.53 0.0
02 04:35 Calm 8.05 Fair CLR 9.9 9.9 100% 76.53 0.0
02 04:15 Calm 8.05 Fair CLR 10.1 10.1 100% 76.53 0.0
02 03:55 Calm 8.05 Fair CLR 9.6 9.6 100% 76.53 0.0
02 03:35 Calm 11.27 Fair CLR 10.5 10.5 100% 76.53 0.0
02 03:15 Calm 8.05 Fair CLR 10.3 10.3 100% 76.53 0.0
02 02:55 Calm 8.05 Fair CLR 9.7 9.7 100% 76.53 0.0
02 02:35 Calm 11.27 Fair CLR 10.5 10.5 100% 76.53 0.0
02 02:15 Calm 11.27 Fair CLR 10.5 10.5 100% 76.56 0.0
02 01:55 Calm 11.27 Fair CLR 11.1 11.1 100% 76.56 0.0
02 01:35 Calm 11.27 Fair CLR 11.2 10.8 97% 76.53 0.0
02 01:15 Calm 8.05 Fair CLR 12 12 100% 76.53 0.0
02 00:55 Calm 11.27 Fair CLR 11.8 11.4 18.3 11.8 97% 76.53 0.0
02 00:35 Calm 8.05 Fair CLR 12.5 10.4 87% 76.53 0.0
02 00:15 Calm 11.27 Fair CLR 13.2 10.3 83% 76.5 0.0
01 23:55 Calm 8.05 Fair CLR 13.4 10.2 81% 76.5 0.0
01 23:35 Calm 11.27 Fair CLR 13.3 10.1 81% 76.5 0.0
01 23:15 Calm 11.27 Fair CLR 13.2 10.5 84% 76.5 0.0
01 22:55 Calm 11.27 Fair CLR 13.6 10.6 82% 76.5 0.0
01 22:35 Calm 8.05 Fair CLR 14.5 11 80% 76.48 0.0
01 22:15 Calm 11.27 Fair CLR 14.2 11 81% 76.48 0.0
01 21:55 Calm 11.27 Fair CLR 14.3 11.1 81% 76.48 0.0
01 21:35 Calm 11.27 Fair CLR 15.1 10.7 75% 76.43 0.0
01 21:15 Calm 11.27 Partly Cloudy SCT110 15.5 10.3 71% 76.4 0.0
01 20:55 Calm 11.27 Partly Cloudy SCT110 15.3 10.5 73% 76.4 0.0
01 20:35 Calm 11.27 Fair CLR 15.8 10.3 70% 76.35 0.0
01 20:15 Calm 8.05 Fair CLR 16.3 10 66% 76.35 0.0
01 19:55 Calm 8.05 Partly Cloudy SCT095 16.7 9.7 64% 76.35 0.0
01 19:35 Calm 8.05 Partly Cloudy SCT095 17.5 9.2 58% 76.33 0.0
01 19:15 Calm 8.05 Partly Cloudy SCT036 18 9.2 57% 76.3 0.0
01 18:55 Calm 8.05 Fair CLR 18.4 9.1 18.5 15.8 55% 76.28 0.0
01 18:35 NE 13 8.05 Fair CLR 17.3 9 58% 76.25 0.0
01 18:15 NE 15 8.05 Fair CLR 17.6 8.8 57% 76.2 0.0
01 17:55 NE 11 G 26 8.05 Fair CLR 17.4 8.7 57% 76.2 0.0
01 17:35 NE 15 6.44 Fair CLR 17.2 8.2 56% 76.2 0.0
01 17:15 NE 15 8.05 Fair CLR 17.2 8.1 55% 76.2 0.0
01 16:55 NE 11 11.27 Fair CLR 17.1 7.9 55% 76.23 0.0
01 16:35 E 9 8.05 Fair CLR 17.2 8.1 55% 76.25 0.0
01 16:15 E 11 8.05 Fair CLR 17.2 7.8 54% 76.28 0.0
01 15:55 E 9 8.05 Fair CLR 17.3 7.3 52% 76.28 0.0
01 15:35 E 9 8.05 Fair CLR 17.1 7.8 55% 76.28 0.0
01 15:15 E 13 11.27 Partly Cloudy SCT036 SCT100 17 8.5 58% 76.3 0.0
01 14:55 NE 13 16.09 Fair CLR 16.5 8.6 60% 76.33 0.0
01 14:35 NE 13 8.05 Mostly Cloudy SCT036 BKN080 16.4 8.9 61% 76.35 0.0
01 14:15 Calm 11.27 Overcast SCT036 OVC080 16 9.5 66% 76.35 0.0
01 13:55 Calm 11.27 Overcast SCT038 OVC070 15.8 9.4 66% 76.35 0.0
01 13:35 NE 11 8.05 Overcast SCT032 SCT038 OVC070 16 9.3 65% 76.35 0.0
01 13:15 E 7 6.44 Overcast SCT030 OVC070 16 9.1 64% 76.35 0.0
01 12:55 NE 13 8.05 Overcast SCT025 BKN040 OVC070 16.1 9.8 16.4 13.3 66% 76.3 0.0
01 12:35 E 17 8.05 Overcast BKN025 BKN030 OVC070 16.3 10.5 69% 76.3 0.0
01 12:15 E 15 8.05 Overcast SCT021 BKN030 OVC070 16.2 11 71% 76.3 0.0
01 11:55 Calm 8.05 Overcast BKN019 BKN029 OVC070 15.9 11.4 75% 76.33 0.0
01 11:35 Calm 8.05 Overcast BKN016 BKN022 OVC028 15.6 11.7 78% 76.33 0.0
01 11:15 E 11 8.05 Mostly Cloudy BKN014 BKN022 BKN036 15.5 12.1 80% 76.33 0.0
01 10:55 NE 13 11.27 Overcast BKN012 BKN034 OVC085 15.5 13 85% 76.3 0.0
01 10:35 NE 17 8.05 Overcast BKN011 BKN020 OVC065 14.5 13.1 91% 76.3 0.0
01 10:15 NE 15 6.44 Overcast BKN011 OVC018 14.5 13.4 93% 76.3 0.0
01 09:55 Calm 8.05 Overcast BKN011 BKN065 OVC110 14.5 13.5 94% 76.33 0.0
01 09:35 E 7 8.05 Mostly Cloudy SCT011 SCT080 BKN110 14.3 13.6 96% 76.3 0.0
01 09:15 Calm 8.05 Overcast SCT009 SCT036 OVC080 13.8 13.8 100% 76.25 0.0
01 08:55 Calm 8.05 Mostly Cloudy SCT009 BKN070 BKN095 13.7 13.7 100% 76.3 0.0
01 08:35 Calm 8.05 Overcast SCT009 BKN070 OVC095 13.6 13.6 100% 76.25 0.0
01 08:15 Calm 6.44 Overcast SCT010 SCT015 OVC070 13.6 13.6 100% 76.3 0.0
01 07:55 Calm 6.44 Overcast SCT011 BKN044 OVC070 13.6 13.6 100% 76.23 0.0
01 07:35 Calm 8.05 Overcast SCT021 OVC042 13.4 13.4 100% 76.23 0.0
01 07:15 Calm 8.05 Overcast SCT019 OVC040 13.3 13.3 100% 76.2 0.0
01 06:55 Calm 16.09 Overcast SCT021 OVC038 13.5 13.5 15 13.5 100% 76.2 0.0 0.03 0.13
01 06:35 Calm 16.09 Overcast SCT013 BKN038 OVC095 13.5 13.5 100% 76.23 0.0
01 06:15 Calm 8.05 Overcast SCT009 BKN012 OVC041 13.6 13.6 100% 76.2 0.0
01 05:55 Calm 11.27 Overcast SCT007 SCT012 OVC042 14 14 100% 76.12 0.0
01 05:35 Calm 11.27 Overcast SCT006 SCT014 OVC042 14 14 100% 76.17 0.0
01 05:15 Calm 8.05 Overcast BKN004 BKN010 OVC014 14.1 14.1 100% 76.2 0.0
01 04:55 Calm 11.27 Mostly Cloudy SCT005 SCT015 BKN036 14.1 14.1 100% 76.2 0.0 0.03
01 04:35 Calm 11.27 Partly Cloudy SCT036 14 14 100% 76.2 0.0 0.03
01 04:15 Calm 16.09 Partly Cloudy SCT033 14 14 100% 76.25 0.0
01 03:55 Calm 16.09 Overcast OVC033 14 14 100% 76.2 0.0 0.03 0.08
01 03:35 Calm 11.27 Overcast OVC033 14 14 100% 76.2 0.0 0.03
01 03:15 Calm 11.27 Overcast BKN029 OVC033 14.1 14.1 100% 76.17 0.0 0.03
01 02:55 Calm 16.09 Overcast OVC027 14.3 14.3 100% 76.2 0.0 0.03
01 02:35 Calm 16.09 Overcast OVC027 14.5 14.5 100% 76.23 0.0 0.03
01 02:15 Calm 16.09 Overcast OVC025 14.5 14.5 100% 76.2 0.0
01 01:55 Calm 16.09 Overcast OVC025 14.6 14.6 100% 76.2 0.0 0.03
01 01:35 Calm 16.09 Overcast OVC025 14.8 14.8 100% 76.25 0.0 0.03
01 01:15 Calm 16.09 Overcast OVC027 14.9 14.9 100% 76.28 0.0
01 00:55 Calm 11.27 Overcast OVC027 15 15 15.5 14.7 100% 76.28 0.0
01 00:35 Calm 11.27 Overcast OVC027 14.8 14.2 96% 76.28 0.0
01 00:15 Calm 8.05 Overcast OVC025 14.9 14 94% 76.28 0.0
30 23:55 Calm 11.27 Overcast BKN023 BKN029 OVC110 14.9 14.5 97% 76.28 0.0
30 23:35 Calm 8.05 Mostly Cloudy BKN019 BKN029 BKN110 14.8 14 95% 76.25 0.0
30 23:15 Calm 8.05 Overcast OVC018 15 14.6 97% 76.25 0.0
30 22:55 Calm 11.27 Overcast OVC020 15 14.6 97% 76.25 0.0
30 22:35 Calm 11.27 Overcast OVC022 15 14.3 96% 76.28 0.0
30 22:15 Calm 11.27 Overcast OVC022 15 14.7 98% 76.25 0.0
30 21:55 Calm 8.05 Overcast OVC022 15 14.8 99% 76.23 0.0
30 21:35 Calm 11.27 Overcast OVC020 15 15 100% 76.17 0.0
30 21:15 Calm 8.05 Overcast BKN019 OVC024 15 15 100% 76.17 0.0
30 20:55 Calm 11.27 Overcast OVC019 15 15 100% 76.15 0.0
30 20:35 NE 9 8.05 Overcast SCT007 OVC019 14.8 14.8 100% 76.1 0.0
30 20:15 NE 15 6.44 Overcast BKN007 OVC015 15 15 100% 76.1 0.0
30 19:55 Calm 4.83 Overcast BKN005 BKN011 OVC020 15 15 100% 76.1 0.0
30 19:35 Calm 6.44 Overcast BKN005 OVC020 15 15 100% 76.07 0.0
30 19:15 Calm 4.83 Overcast BKN005 OVC013 15.5 15.5 100% 76.07 0.0
30 18:55 Calm 4.02 Overcast BKN007 OVC013 15.3 15.3 16 15 100% 76.1 0.0
30 18:15 Calm 3.22 Overcast BKN007 OVC013 15.6 15.6 100% 76.05 0.0
30 17:55 Calm 2.82 Overcast BKN005 OVC012 15.6 15.6 100% 76.05 0.0
30 17:35 Calm 4.02 Overcast BKN005 OVC012 15.5 15.5 100% 76.02 0.0
30 17:15 Calm 4.02 Overcast OVC007 15.7 15.7 100% 76.07 0.0
30 16:55 Calm 6.44 Overcast BKN007 OVC014 15.9 15.8 99% 76.05 0.0
30 16:35 Calm 6.44 Overcast BKN008 OVC012 16 15.2 95% 76.07 0.0
30 16:15 NE 11 8.05 Overcast OVC008 15.8 15.5 98% 76.1 0.0
30 15:55 NE 11 4.83 Overcast BKN006 OVC010 15.6 15.6 100% 76.05 0.0
30 15:35 E 9 6.44 Overcast OVC006 15.6 15.6 100% 76.05 0.0
30 15:15 Calm 4.83 Overcast OVC006 15.5 15.5 100% 76.07 0.0
30 14:55 E 13 4.83 Overcast OVC006 15.6 15.6 100% 76.05 0.0
30 14:35 Calm 3.22 Overcast OVC006 15.3 15.3 100% 76.1 0.0
30 14:15 Calm 3.22 Overcast OVC008 15.2 15.2 100% 76.1 0.0
30 13:55 NE 11 4.02 Overcast OVC008 15.2 15.2 100% 76.12 0.0
30 13:35 E 9 8.05 Overcast OVC008 15.2 14.7 97% 76.1 0.0
30 13:15 NE 15 8.05 Overcast OVC008 15 14.4 96% 76.05 0.0
30 12:55 NE 11 8.05 Overcast OVC008 15 14.4 15 13.5 96% 76.12 0.0 0.1
30 12:35 NE 9 8.05 Overcast OVC008 14.9 14.4 97% 76.12 0.0
30 12:15 N 11 6.44 Overcast OVC006 14.7 14.5 99% 76.2 0.0
30 11:55 E 11 8.05 Overcast OVC006 14.5 14.4 99% 76.12 0.0
30 11:35 E 9 6.44 Overcast OVC006 14.5 14.5 100% 76.17 0.0
30 11:15 Calm 4.83 Overcast OVC006 14.3 14.3 100% 76.2 0.0
30 10:55 Calm 11.27 Overcast OVC006 14.2 14.2 100% 76.17 0.0
30 10:35 Calm 8.05 Mostly Cloudy BKN006 14.1 14.1 100% 76.1 0.0
30 10:15 Calm 11.27 Partly Cloudy SCT008 SCT060 13.8 13.8 100% 76.1 0.0
30 09:55 Calm 11.27 Mostly Cloudy BKN060 13.8 13.8 100% 76.1 0.0 0.1 0.1
30 09:35 Calm 11.27 Partly Cloudy SCT017 SCT031 SCT060 13.6 13.3 98% 76.17 0.0 0.1
30 09:15 Calm 4.83 Thunderstorm OVC015 13.9 10.9 82% 76.23 0.0 0.08
30 08:55 Calm 11.27 Overcast OVC015 14.5 10.8 79% 76.23 0.0
30 08:35 Calm 8.05 Overcast OVC017 14.5 10.6 78% 76.2 0.0
30 08:15 Calm 11.27 Overcast OVC017 14.3 10.6 79% 76.15 0.0
30 07:55 Calm 8.05 Overcast OVC017 14.3 10.5 78% 76.12 0.0
30 07:35 Calm 8.05 Overcast OVC017 14.3 10.6 79% 76.12 0.0
30 07:15 Calm 8.05 Overcast OVC017 14.3 10.5 78% 76.15 0.0
30 06:55 Calm 11.27 Overcast BKN017 OVC030 14.4 10.5 15.5 14.3 78% 76.12 0.0
30 06:35 Calm 11.27 Overcast SCT019 OVC028 14.3 10.5 78% 76.1 0.0
30 06:15 Calm 11.27 Overcast SCT019 OVC028 14.3 10.6 79% 76.07 0.0
30 05:55 Calm 8.05 Overcast BKN019 OVC028 14.3 10.7 79% 76.1 0.0
30 05:35 Calm 11.27 Overcast OVC028 14.5 10.8 79% 76.07 0.0
30 05:15 NE 6 11.27 Overcast OVC028 14.7 10.8 78% 76.12 0.0
30 04:35 NE 7 11.27 Overcast BKN021 OVC028 15 10.8 76% 76.07 0.0
30 04:15 Calm 11.27 Overcast OVC021 15 10.7 76% 76.1 0.0
30 03:55 Calm 11.27 Overcast OVC023 15 10.8 76% 76.1 0.0
30 03:35 Calm 11.27 Overcast OVC023 15 11 77% 76.1 0.0
30 03:15 Calm 8.05 Overcast OVC025 15 11.2 78% 76.1 0.0
30 02:55 Calm 11.27 Overcast OVC027 14.8 11.7 82% 76.12 0.0
30 02:35 Calm 8.05 Overcast OVC027 14.8 11.6 81% 76.15 0.0
30 02:15 Calm 11.27 Overcast OVC027 14.7 11.5 81% 76.15 0.0
30 01:55 Calm 11.27 Overcast OVC025 14.5 11.4 82% 76.15 0.0
30 01:35 Calm 11.27 Partly Cloudy SCT025 14.7 11.2 80% 76.15 0.0
30 01:15 Calm 11.27 Fair CLR 15.2 11.3 78% 76.15 0.0
30 00:55 Calm 11.27 Partly Cloudy SCT033 15.5 11.3 16.8 15.5 76% 76.17 0.0
30 00:35 Calm 8.05 Mostly Cloudy BKN033 15.9 11.2 74% 76.17 0.0
30 00:15 Calm 11.27 Overcast OVC033 16.2 11.1 72% 76.2 0.0
29 23:55 Calm 11.27 Overcast OVC031 16.3 11 71% 76.2 0.0
29 23:35 Calm 11.27 Overcast OVC031 16.5 11.1 71% 76.2 0.0
29 23:15 Calm 11.27 Overcast OVC031 16.4 11.4 72% 76.23 0.0
29 22:55 Calm 11.27 Overcast OVC031 16.4 11.3 72% 76.25 0.0
29 22:35 Calm 8.05 Overcast OVC031 16.2 11.4 73% 76.23 0.0
29 22:15 Calm 11.27 Overcast OVC033 16.4 11.1 71% 76.2 0.0
29 21:55 Calm 11.27 Overcast OVC033 16.3 11.1 72% 76.2 0.0
29 21:35 Calm 8.05 Overcast OVC033 16.5 11 70% 76.2 0.0
29 21:15 Calm 8.05 Overcast OVC035 16.5 11.1 71% 76.2 0.0
29 20:55 Calm 11.27 Overcast OVC035 16.5 11 70% 76.17 0.0
29 20:35 Calm 8.05 Overcast OVC033 16.5 10.7 69% 76.15 0.0
29 20:15 NE 9 11.27 Overcast OVC029 16.5 10.6 68% 76.12 0.0
29 19:55 N 7 8.05 Overcast OVC027 16.5 10.5 68% 76.1 0.0
29 19:35 NE 9 8.05 Overcast BKN027 OVC034 16.6 10.5 67% 76.07 0.0
29 19:15 NE 13 8.05 Overcast OVC027 16.7 10.7 68% 76.1 0.0
29 18:55 NE 11 8.05 Overcast OVC027 16.8 10.6 18 16.3 67% 76.1 0.0
29 18:35 N 7 8.05 Overcast OVC027 17 10.8 67% 76.12 0.0
29 18:15 NE 11 6.44 Overcast OVC027 16.8 10.6 67% 76.1 0.0
29 17:55 NE 9 8.05 Overcast OVC027 17 10.7 67% 76.07 0.0
29 17:35 N 11 6.44 Overcast OVC027 17.3 10.7 65% 76.1 0.0
29 17:15 NE 15 8.05 Overcast OVC027 17.6 10.6 64% 76.05 0.0
29 16:55 NE 15 8.05 Overcast OVC029 17.6 10.5 63% 76.07 0.0
29 16:35 NE 9 8.05 Overcast OVC029 17.5 10.5 64% 76.1 0.0
29 16:15 NE 11 8.05 Overcast OVC029 17.7 10.7 64% 76.1 0.0
29 15:55 N 11 8.05 Overcast OVC029 17.8 10.5 63% 76.1 0.0
29 15:35 NE 9 8.05 Overcast OVC029 17.8 10.4 62% 76.1 0.0
29 15:15 NE 13 11.27 Overcast OVC031 17.5 10.3 63% 76.1 0.0
29 14:55 N 11 8.05 Overcast OVC031 17.3 10.2 63% 76.15 0.0
29 14:35 NE 9 8.05 Overcast OVC031 17.2 10.1 63% 76.2 0.0
Date Time (cdt) Wind (kph) Vis. (km) Weather Sky Cond. Air Dwpt Max. Min. Relative Humidity Wind Chill (°C) Heat Index (°C) altimeter (cm) sea level (mb) 1 hr 3 hr 6 hr
6 hour
Temperature (ºC) Pressure Precipitation (cm)